Terminal Aerodrome Forecast
Issued by NWS Binghamton, NY

Home | Current Version | Previous Version | Text Only | Print | Product List | Glossary On
Versions: 1 2 3 4 5 6 7 8 9 10 11 12 13 14 15 16 17 18 19 20 21 22 23 24 25 26 27 28 29 30 31 32 33
910
FTUS41 KBGM 221750
TAFBGM
TAF
KBGM 221750Z 2218/2318 13004KT P6SM SCT005 BKN050
      TEMPO 2219/2223 BKN005
     FM222300 10012G18KT 1/4SM FG OVC002
     FM230900 10013KT P6SM OVC005
     FM231400 09015G26KT 5SM -RAPL OVC008=

USA.gov is the U.S. government's official web portal to all federal, state and local government web resources and services.